Williamstown, Pennsylvania
Current Conditions -  °F | °C
As of 10:58 AM on Wednesday 28 Jan 2015 (Local Time) from KMUI Reporting Station
Clear Clear  
Wind Chill: 11°   Ceiling: Unl
Heat Index: 24°   Visibility: 10mi
Dew Point: -1°   Wind: 15mph
Humidity: 34%   Direction: 310°NW
Pressure: 30.19"   Gusts: 25mph
Location:  40.58°N, 76.62°W
Report Text: KMUI 281558Z AUTO 31013G22KT 10SM CLR M04/M18 A3019 RMK AO2 SLP234 T10441181
Loading
Personal Weather Stations






























Interactive Weather Map New forecast layout! Learn more

10-Day Weather Forecast

Advertisements
Track Severe Weather on mobile